createdAt,value
2019-03-20T00:00:19.932Z,61.17
2019-03-20T00:02:48.917Z,59.94
2019-03-20T00:05:16.256Z,59.92
2019-03-20T00:07:43.310Z,60.59
2019-03-20T00:10:10.331Z,63.65
2019-03-20T00:12:38.455Z,64.87
2019-03-20T00:15:05.485Z,66.07
2019-03-20T00:17:32.843Z,66.74
2019-03-20T00:19:59.875Z,67.71
2019-03-20T00:22:27.173Z,68.13
2019-03-20T00:24:54.466Z,68.46
2019-03-20T00:27:21.760Z,68.36
2019-03-20T00:29:48.869Z,68.57
2019-03-20T00:32:15.915Z,68.83
2019-03-20T00:34:43.196Z,69.04
2019-03-20T00:37:10.313Z,69.97
2019-03-20T00:39:37.422Z,70.39
2019-03-20T00:42:04.727Z,70.54
2019-03-20T00:44:32.009Z,70.33
2019-03-20T00:46:59.308Z,70.58
2019-03-20T00:49:26.663Z,70.54
2019-03-20T00:51:53.951Z,70.38
2019-03-20T00:54:20.985Z,70.28
2019-03-20T00:56:48.030Z,70.44
2019-03-20T00:59:15.061Z,70.38
2019-03-20T01:01:42.364Z,70.54
2019-03-20T01:04:09.399Z,70.33
2019-03-20T01:06:36.445Z,70.24
2019-03-20T01:09:03.821Z,69.48
2019-03-20T01:11:31.932Z,69.32
2019-03-20T01:13:59.209Z,69.07
2019-03-20T01:16:26.264Z,68.89
2019-03-20T01:18:53.545Z,68.37
2019-03-20T01:21:21.563Z,68.33
2019-03-20T01:23:48.594Z,68.13
2019-03-20T01:26:15.636Z,68.73
2019-03-20T01:28:42.671Z,69.12
2019-03-20T01:31:09.704Z,69.25
2019-03-20T01:33:36.754Z,69.22
2019-03-20T01:36:04.032Z,69.12
2019-03-20T01:38:31.103Z,68.73
2019-03-20T01:40:58.134Z,68.50
2019-03-20T01:43:25.175Z,68.47
2019-03-20T01:45:52.469Z,68.59
2019-03-20T01:48:19.516Z,68.84
2019-03-20T01:50:46.548Z,69.04
2019-03-20T01:53:13.852Z,68.81
2019-03-20T01:55:41.131Z,68.96
2019-03-20T01:58:08.426Z,69.35
2019-03-20T02:00:35.697Z,69.72
2019-03-20T02:03:03.008Z,70.80
2019-03-20T02:05:35.950Z,71.39
2019-03-20T02:07:59.092Z,72.05
2019-03-20T02:10:26.381Z,73.12
2019-03-20T02:12:53.429Z,73.56
2019-03-20T02:15:20.704Z,73.00
2019-03-20T02:17:47.995Z,72.15
2019-03-20T02:20:15.289Z,71.84
2019-03-20T02:22:42.409Z,71.83
2019-03-20T02:25:09.439Z,72.00
2019-03-20T02:27:36.722Z,72.23
2019-03-20T02:30:04.027Z,72.40
2019-03-20T02:32:32.407Z,72.81
2019-03-20T02:34:59.686Z,73.19
2019-03-20T02:37:26.730Z,73.45
2019-03-20T02:39:53.779Z,73.42
2019-03-20T02:42:20.813Z,73.29
2019-03-20T02:44:47.926Z,73.48
2019-03-20T02:47:14.987Z,73.87
2019-03-20T02:49:42.255Z,73.96
2019-03-20T02:52:09.286Z,74.16
2019-03-20T02:54:36.575Z,73.95
2019-03-20T02:57:03.615Z,74.02
2019-03-20T02:59:30.696Z,73.71
2019-03-20T03:01:58.926Z,73.74
2019-03-20T03:04:25.997Z,73.53
2019-03-20T03:06:53.020Z,73.31
2019-03-20T03:09:20.345Z,73.26
2019-03-20T03:11:47.641Z,73.68
2019-03-20T03:14:15.024Z,73.25
2019-03-20T03:16:42.381Z,73.19
2019-03-20T03:19:09.438Z,73.09
2019-03-20T03:21:36.735Z,72.99
2019-03-20T03:24:03.791Z,72.82
2019-03-20T03:26:31.183Z,73.09
2019-03-20T03:28:58.560Z,73.69
2019-03-20T03:31:25.904Z,74.35
2019-03-20T03:33:53.251Z,74.69
2019-03-20T03:36:21.905Z,75.01
2019-03-20T03:38:50.623Z,75.56
2019-03-20T03:41:17.973Z,75.49
2019-03-20T03:43:45.028Z,74.75
2019-03-20T03:46:12.070Z,74.18
2019-03-20T03:48:39.424Z,74.74
2019-03-20T03:51:06.467Z,74.82
2019-03-20T03:53:33.602Z,73.96
2019-03-20T03:56:00.884Z,73.92
2019-03-20T03:58:28.246Z,74.08
2019-03-20T04:00:55.514Z,74.02
2019-03-20T04:03:22.865Z,73.26
2019-03-20T04:05:49.905Z,72.41
2019-03-20T04:08:17.241Z,71.79
2019-03-20T04:10:44.298Z,71.09
2019-03-20T04:13:11.332Z,70.69
2019-03-20T04:15:38.721Z,70.66
2019-03-20T04:18:06.072Z,70.47
2019-03-20T04:20:33.409Z,70.54
2019-03-20T04:23:00.792Z,71.05
2019-03-20T04:25:28.135Z,71.81
2019-03-20T04:27:55.432Z,72.51
2019-03-20T04:30:22.471Z,71.96
2019-03-20T04:32:49.503Z,71.28
2019-03-20T04:35:16.840Z,71.00
2019-03-20T04:37:44.203Z,71.30
2019-03-20T04:40:12.684Z,71.98
2019-03-20T04:42:40.045Z,72.84
2019-03-20T04:45:08.216Z,72.58
2019-03-20T04:47:35.549Z,72.33
2019-03-20T04:50:02.899Z,71.91
2019-03-20T04:52:29.943Z,71.87
2019-03-20T04:54:56.995Z,71.66
2019-03-20T04:57:24.361Z,72.09
2019-03-20T04:59:51.401Z,72.73
2019-03-20T05:02:18.752Z,72.86
2019-03-20T05:04:46.110Z,72.18
2019-03-20T05:07:13.150Z,72.00
2019-03-20T05:09:40.207Z,71.92
2019-03-20T05:12:07.557Z,71.86
2019-03-20T05:14:34.611Z,71.07
2019-03-20T05:17:01.681Z,70.55
2019-03-20T05:19:28.909Z,70.13
2019-03-20T05:21:55.964Z,70.19
2019-03-20T05:24:23.013Z,70.72
2019-03-20T05:26:50.101Z,71.54
2019-03-20T05:29:17.160Z,72.17
2019-03-20T05:31:45.282Z,72.47
2019-03-20T05:34:12.319Z,72.26
2019-03-20T05:36:39.693Z,72.43
2019-03-20T05:39:06.739Z,72.55
2019-03-20T05:41:33.791Z,72.58
2019-03-20T05:44:02.282Z,72.47
2019-03-20T05:46:29.341Z,72.43
2019-03-20T05:48:56.380Z,73.37
2019-03-20T05:51:23.441Z,73.10
2019-03-20T05:53:50.482Z,71.60
2019-03-20T05:56:17.803Z,69.41
2019-03-20T05:58:45.154Z,68.46
2019-03-20T06:01:12.512Z,68.44
2019-03-20T06:03:39.543Z,68.35
2019-03-20T06:06:06.590Z,67.77
2019-03-20T06:08:34.607Z,66.48
2019-03-20T06:11:01.739Z,62.00
2019-03-20T06:13:28.781Z,57.96
2019-03-20T06:15:56.124Z,55.75
2019-03-20T06:18:23.211Z,53.85
2019-03-20T06:20:50.531Z,50.31
2019-03-20T06:23:17.568Z,46.20
2019-03-20T06:25:44.995Z,43.81
2019-03-20T06:28:11.969Z,44.03
2019-03-20T06:30:39.353Z,41.47
2019-03-20T06:33:06.411Z,40.01
2019-03-20T06:35:33.744Z,39.48
2019-03-20T06:38:00.808Z,36.24
2019-03-20T06:40:27.854Z,35.31
2019-03-20T06:42:55.495Z,34.93
2019-03-20T06:45:22.974Z,34.83
2019-03-20T06:47:50.332Z,33.70
2019-03-20T06:50:17.373Z,32.68
2019-03-20T06:52:44.713Z,32.01
2019-03-20T06:55:11.767Z,32.48
2019-03-20T06:57:38.811Z,30.70
2019-03-20T07:00:06.184Z,30.34
2019-03-20T07:02:33.520Z,29.50
2019-03-20T07:05:00.859Z,29.89
2019-03-20T07:07:27.921Z,29.47
2019-03-20T07:09:54.958Z,28.32
2019-03-20T07:12:22.344Z,28.52
2019-03-20T07:14:49.459Z,28.12
2019-03-20T07:17:16.832Z,28.34
2019-03-20T07:19:44.187Z,30.00
2019-03-20T07:22:11.545Z,29.87
2019-03-20T07:24:38.598Z,29.83
2019-03-20T07:27:05.653Z,28.99
2019-03-20T07:29:32.995Z,27.14
2019-03-20T07:32:00.056Z,26.80
2019-03-20T07:34:27.417Z,25.93
2019-03-20T07:36:54.751Z,26.53
2019-03-20T07:39:22.122Z,25.70
2019-03-20T07:41:49.174Z,25.45
2019-03-20T07:44:16.210Z,24.80
2019-03-20T07:46:43.573Z,24.89
2019-03-20T07:49:10.619Z,24.56
2019-03-20T07:51:37.958Z,23.53
2019-03-20T07:54:05.010Z,23.75
2019-03-20T07:56:32.396Z,23.48
2019-03-20T07:58:59.451Z,23.83
2019-03-20T08:01:26.770Z,25.64
2019-03-20T08:03:53.819Z,23.86
2019-03-20T08:06:22.216Z,24.55
2019-03-20T08:08:49.652Z,23.38
2019-03-20T08:11:17.008Z,24.02
2019-03-20T08:13:44.057Z,24.01
2019-03-20T08:16:12.167Z,23.59
2019-03-20T08:18:39.231Z,25.55
2019-03-20T08:21:06.546Z,23.54
2019-03-20T08:23:33.885Z,23.39
2019-03-20T08:26:00.928Z,24.75
2019-03-20T08:28:27.977Z,25.51
2019-03-20T08:30:55.335Z,24.44
2019-03-20T08:33:22.628Z,24.26
2019-03-20T08:35:49.960Z,25.05
2019-03-20T08:38:18.830Z,24.34
2019-03-20T08:40:46.413Z,24.17
2019-03-20T08:43:13.877Z,23.88
2019-03-20T08:45:40.952Z,23.54
2019-03-20T08:48:08.410Z,22.97
2019-03-20T08:50:35.481Z,23.49
2019-03-20T08:53:02.529Z,22.79
2019-03-20T08:55:29.965Z,23.50
2019-03-20T09:00:42.569Z,23.19
2019-03-20T09:03:09.999Z,23.74
2019-03-20T09:05:37.291Z,23.24
2019-03-20T09:08:04.379Z,22.93
2019-03-20T09:10:31.657Z,24.07
2019-03-20T09:12:59.036Z,23.86
2019-03-20T09:15:26.392Z,22.78
2019-03-20T09:17:54.763Z,22.84
2019-03-20T09:20:22.038Z,22.36
2019-03-20T09:22:49.081Z,20.70
2019-03-20T09:25:16.395Z,20.56
2019-03-20T09:27:43.681Z,20.06
2019-03-20T09:30:11.002Z,19.87
2019-03-20T09:32:38.044Z,19.35
2019-03-20T09:35:07.037Z,18.33
2019-03-20T09:37:35.628Z,17.67
2019-03-20T09:40:02.988Z,19.29
2019-03-20T09:42:30.029Z,19.77
2019-03-20T09:44:57.392Z,19.25
2019-03-20T09:47:24.437Z,20.64
2019-03-20T09:49:51.790Z,21.05
2019-03-20T09:52:19.073Z,22.31
2019-03-20T09:54:46.417Z,22.60
2019-03-20T09:57:13.526Z,22.96
2019-03-20T09:59:40.578Z,22.79
2019-03-20T10:02:07.952Z,21.72
2019-03-20T10:04:35.306Z,21.29
2019-03-20T10:07:02.661Z,21.07
2019-03-20T10:09:29.725Z,20.37
2019-03-20T10:11:57.586Z,20.56
2019-03-20T10:14:25.089Z,19.47
2019-03-20T10:16:52.393Z,18.72
2019-03-20T10:19:19.487Z,17.78
2019-03-20T10:21:46.793Z,18.83
2019-03-20T10:24:14.153Z,19.92
2019-03-20T10:26:41.196Z,21.49
2019-03-20T10:29:08.263Z,22.33
2019-03-20T10:31:36.377Z,21.13
2019-03-20T10:34:03.794Z,19.97
2019-03-20T10:36:31.089Z,19.14
2019-03-20T10:39:06.426Z,17.18
2019-03-20T10:41:27.252Z,17.11
2019-03-20T10:43:55.309Z,16.78
2019-03-20T10:46:22.588Z,16.64
2019-03-20T10:48:49.708Z,16.30
2019-03-20T10:51:16.813Z,16.28
2019-03-20T10:53:44.180Z,16.64
2019-03-20T10:56:11.638Z,16.52
2019-03-20T10:58:39.138Z,16.58
2019-03-20T11:01:06.552Z,16.24
2019-03-20T11:03:33.810Z,16.50
2019-03-20T11:06:01.274Z,16.26
2019-03-20T11:08:28.351Z,16.90
2019-03-20T11:10:55.831Z,17.59
2019-03-20T11:13:22.907Z,19.17
2019-03-20T11:15:50.277Z,18.98
2019-03-20T11:18:17.631Z,20.15
2019-03-20T11:20:44.725Z,20.92
2019-03-20T11:23:12.056Z,20.69
2019-03-20T11:25:39.145Z,20.41
2019-03-20T11:28:06.536Z,19.95
2019-03-20T11:30:33.995Z,20.15
2019-03-20T11:33:01.349Z,20.25
2019-03-20T11:35:28.812Z,20.33
2019-03-20T11:37:55.890Z,18.54
2019-03-20T11:40:23.317Z,19.32
2019-03-20T11:42:50.389Z,19.34
2019-03-20T11:45:17.825Z,18.06
2019-03-20T11:47:45.279Z,18.37
2019-03-20T11:50:12.363Z,19.53
2019-03-20T11:52:39.442Z,19.04
2019-03-20T11:55:06.541Z,18.30
2019-03-20T11:57:33.985Z,18.84
2019-03-20T12:00:01.437Z,18.39
2019-03-20T12:02:29.896Z,19.64
2019-03-20T12:04:57.278Z,20.39
2019-03-20T12:07:24.470Z,19.53
2019-03-20T12:09:51.558Z,17.51
2019-03-20T12:12:18.635Z,16.75
2019-03-20T12:14:46.080Z,16.56
2019-03-20T12:17:13.157Z,16.55
2019-03-20T12:19:44.923Z,17.95
2019-03-20T12:22:09.386Z,20.28
2019-03-20T12:24:36.834Z,20.23
2019-03-20T12:27:14.517Z,20.90
2019-03-20T12:29:33.387Z,19.95
2019-03-20T12:32:00.478Z,20.71
2019-03-20T12:34:28.624Z,18.68
2019-03-20T12:36:56.745Z,17.01
2019-03-20T12:39:23.836Z,17.63
2019-03-20T12:41:51.291Z,17.47
2019-03-20T12:44:18.374Z,19.37
2019-03-20T12:46:45.538Z,20.68
2019-03-20T12:49:12.951Z,20.13
2019-03-20T12:51:40.032Z,19.53
2019-03-20T12:54:07.118Z,19.13
2019-03-20T12:56:34.229Z,17.71
2019-03-20T12:59:01.285Z,16.69
2019-03-20T13:01:28.383Z,16.77
2019-03-20T13:03:55.741Z,16.00
2019-03-20T13:06:22.897Z,16.41
2019-03-20T13:08:50.426Z,17.05
2019-03-20T13:11:17.469Z,17.09
2019-03-20T13:13:44.856Z,18.41
2019-03-20T13:16:13.019Z,17.93
2019-03-20T13:18:40.107Z,17.15
2019-03-20T13:21:07.537Z,17.41
2019-03-20T13:23:34.995Z,19.08
2019-03-20T13:26:02.090Z,20.91
2019-03-20T13:28:29.167Z,22.59
2019-03-20T13:30:56.263Z,23.33
2019-03-20T13:33:25.991Z,24.39
2019-03-20T13:35:53.040Z,25.72
2019-03-20T13:38:20.125Z,26.42
2019-03-20T13:40:47.503Z,29.04
2019-03-20T13:43:14.689Z,29.42
2019-03-20T13:45:42.109Z,28.70
2019-03-20T13:48:09.467Z,30.06
2019-03-20T13:50:36.924Z,30.01
2019-03-20T13:53:04.010Z,30.12
2019-03-20T13:55:31.097Z,29.47
2019-03-20T13:57:58.478Z,30.93
2019-03-20T14:00:25.555Z,31.16
2019-03-20T14:02:53.016Z,32.28
2019-03-20T14:05:20.165Z,32.94
2019-03-20T14:07:47.515Z,32.88
2019-03-20T14:10:24.541Z,32.07
2019-03-20T14:12:43.733Z,31.68
2019-03-20T14:15:10.809Z,32.03
2019-03-20T14:17:38.246Z,32.34
2019-03-20T14:20:05.326Z,31.92
2019-03-20T14:22:32.411Z,33.21
2019-03-20T14:24:59.492Z,33.04
2019-03-20T14:27:26.575Z,32.79
2019-03-20T14:29:53.650Z,33.31
2019-03-20T14:32:21.703Z,33.12
2019-03-20T14:34:48.781Z,33.29
2019-03-20T14:37:16.132Z,33.29
2019-03-20T14:39:43.518Z,32.77
2019-03-20T14:42:10.972Z,32.61
2019-03-20T14:44:38.428Z,33.47
2019-03-20T14:47:05.885Z,33.14
2019-03-20T14:49:32.956Z,32.96
2019-03-20T14:52:00.328Z,34.74
2019-03-20T14:54:27.748Z,33.02
2019-03-20T14:56:54.836Z,33.59
2019-03-20T14:59:22.252Z,34.29
2019-03-20T15:01:49.344Z,34.14
2019-03-20T15:04:16.416Z,34.23
2019-03-20T15:06:43.502Z,33.93
2019-03-20T15:09:10.574Z,33.70
2019-03-20T15:11:38.032Z,34.49
2019-03-20T15:14:05.489Z,35.98
2019-03-20T15:16:33.940Z,33.99
2019-03-20T15:19:01.333Z,35.06
2019-03-20T15:21:28.505Z,34.41
2019-03-20T15:23:55.909Z,34.22
2019-03-20T15:26:23.101Z,34.74
2019-03-20T15:28:50.157Z,34.77
2019-03-20T15:31:17.592Z,34.49
2019-03-20T15:33:44.687Z,34.34
2019-03-20T15:36:12.092Z,34.58
2019-03-20T15:38:39.527Z,33.94
2019-03-20T15:41:06.596Z,33.97
2019-03-20T15:43:34.056Z,34.62
2019-03-20T15:46:01.131Z,34.68
2019-03-20T15:48:29.192Z,35.05
2019-03-20T15:50:56.611Z,33.96
2019-03-20T15:53:24.065Z,34.21
2019-03-20T15:55:51.422Z,34.47
2019-03-20T15:58:18.503Z,34.64
2019-03-20T16:00:45.927Z,35.07
2019-03-20T16:03:13.389Z,33.56
2019-03-20T16:05:40.736Z,34.06
2019-03-20T16:08:08.092Z,34.32
2019-03-20T16:10:35.448Z,34.25
2019-03-20T16:13:02.932Z,34.58
2019-03-20T16:15:30.265Z,35.06
2019-03-20T16:17:57.357Z,34.99
2019-03-20T16:20:24.765Z,34.86
2019-03-20T16:22:52.219Z,35.27
2019-03-20T16:25:19.296Z,35.49
2019-03-20T16:27:46.402Z,35.98
2019-03-20T16:32:44.032Z,36.20
2019-03-20T16:35:15.874Z,36.28
2019-03-20T16:37:43.258Z,37.52
2019-03-20T16:40:10.612Z,37.54
2019-03-20T16:42:37.742Z,38.35
2019-03-20T16:45:04.953Z,38.68
2019-03-20T16:47:32.057Z,38.16
2019-03-20T16:49:59.151Z,37.68
2019-03-20T16:52:26.298Z,38.41
2019-03-20T16:54:53.385Z,38.48
2019-03-20T16:57:21.859Z,39.74
2019-03-20T16:59:49.061Z,40.17
2019-03-20T17:02:16.153Z,40.43
2019-03-20T17:07:12.360Z,40.77
2019-03-20T17:09:53.624Z,41.43
2019-03-20T17:14:59.217Z,41.73
2019-03-20T17:17:30.752Z,42.28
2019-03-20T17:19:58.102Z,42.95
2019-03-20T17:22:29.410Z,43.14
2019-03-20T17:30:27.885Z,44.58
2019-03-20T17:32:59.566Z,44.83
2019-03-20T17:38:15.788Z,45.42
2019-03-20T17:40:55.508Z,45.90
2019-03-20T17:46:06.753Z,47.01
2019-03-20T17:48:33.898Z,47.11
2019-03-20T17:51:00.992Z,47.37
2019-03-20T17:53:28.233Z,47.39
2019-03-20T17:58:38.776Z,47.67
2019-03-20T18:01:11.024Z,47.60
2019-03-20T18:03:40.484Z,47.84
2019-03-20T18:06:07.805Z,47.83
2019-03-20T18:08:50.247Z,47.96
2019-03-20T18:11:29.439Z,48.10
2019-03-20T18:16:48.624Z,47.74
2019-03-20T18:19:29.229Z,47.67
2019-03-20T18:21:58.791Z,47.68
2019-03-20T18:27:17.276Z,48.27
2019-03-20T18:29:46.888Z,48.52
2019-03-20T18:32:14.202Z,48.56
2019-03-20T18:34:50.698Z,48.65
2019-03-20T18:37:18.049Z,48.84
2019-03-20T18:39:54.423Z,48.84
2019-03-20T18:42:25.056Z,49.14
2019-03-20T18:44:59.284Z,49.04
2019-03-20T18:47:26.620Z,48.83
2019-03-20T18:49:54.755Z,48.79
2019-03-20T18:54:56.362Z,49.31
2019-03-20T18:57:24.943Z,49.16
2019-03-20T19:02:26.235Z,49.13
2019-03-20T19:04:55.442Z,48.89
2019-03-20T19:07:26.788Z,49.06
2019-03-20T19:09:54.065Z,49.10
2019-03-20T19:12:34.412Z,49.38
2019-03-20T19:15:01.734Z,49.35
2019-03-20T19:17:32.061Z,49.35
2019-03-20T19:20:00.128Z,49.13
2019-03-20T19:22:35.616Z,50.04
2019-03-20T19:25:03.872Z,49.49
2019-03-20T19:30:19.154Z,49.91
2019-03-20T19:32:54.377Z,49.26
2019-03-20T19:35:21.646Z,49.25
2019-03-20T19:38:00.295Z,49.18
2019-03-20T19:40:32.551Z,49.13
2019-03-20T19:43:16.433Z,48.77
2019-03-20T19:45:45.761Z,48.71
2019-03-20T19:48:22.031Z,48.98
2019-03-20T19:50:50.333Z,49.19
2019-03-20T19:56:21.773Z,48.63
2019-03-20T19:59:04.485Z,48.35
2019-03-20T20:01:32.722Z,48.27
2019-03-20T20:04:12.818Z,48.17
2019-03-20T20:06:42.217Z,48.46
2019-03-20T20:09:19.799Z,48.73
2019-03-20T20:14:24.068Z,49.51
2019-03-20T20:16:55.421Z,50.07
2019-03-20T20:19:34.074Z,49.68
2019-03-20T20:22:06.615Z,49.76
2019-03-20T20:24:34.773Z,50.25
2019-03-20T20:29:35.037Z,50.71
2019-03-20T20:32:02.542Z,50.48
2019-03-20T20:34:29.771Z,50.38
2019-03-20T20:37:02.213Z,50.17
2019-03-20T20:39:33.546Z,50.10
2019-03-20T20:42:02.761Z,49.87
2019-03-20T20:44:35.289Z,49.93
2019-03-20T20:49:58.827Z,50.22
2019-03-20T20:52:25.881Z,49.97
2019-03-20T20:54:54.130Z,49.59
2019-03-20T20:57:21.398Z,49.88
2019-03-20T20:59:49.330Z,50.08
2019-03-20T21:04:51.763Z,50.54
2019-03-20T21:07:19.044Z,50.35
2019-03-20T21:09:58.735Z,50.43
2019-03-20T21:12:26.016Z,50.98
2019-03-20T21:15:03.446Z,50.27
2019-03-20T21:17:35.934Z,50.57
2019-03-20T21:20:03.816Z,50.14
2019-03-20T21:22:35.621Z,50.16
2019-03-20T21:30:36.279Z,50.56
2019-03-20T21:33:03.539Z,52.61
2019-03-20T21:35:49.694Z,52.39
2019-03-20T21:46:30.137Z,55.92
2019-03-20T21:48:57.461Z,56.41
2019-03-20T21:51:24.904Z,56.27
2019-03-20T21:53:54.376Z,56.56
2019-03-20T21:56:21.611Z,56.91
2019-03-20T21:58:49.225Z,57.42
2019-03-20T22:01:16.917Z,57.37
2019-03-20T22:03:44.042Z,57.61
2019-03-20T22:06:13.030Z,57.48
2019-03-20T22:08:45.040Z,57.66
2019-03-20T22:11:12.966Z,57.83
2019-03-20T22:13:42.573Z,58.28
2019-03-20T22:16:10.573Z,58.38
2019-03-20T22:18:37.899Z,58.26
2019-03-20T22:21:10.393Z,58.30
2019-03-20T22:23:37.929Z,58.18
2019-03-20T22:26:17.984Z,58.44
2019-03-20T22:28:45.338Z,58.91
2019-03-20T22:31:12.376Z,59.60
2019-03-20T22:33:39.591Z,60.13
2019-03-20T22:36:06.890Z,60.33
2019-03-20T22:38:34.251Z,60.25
2019-03-20T22:41:11.555Z,60.22
2019-03-20T22:43:38.892Z,60.10
2019-03-20T22:46:06.247Z,60.42
2019-03-20T22:48:33.298Z,60.63
2019-03-20T22:51:00.669Z,60.63
2019-03-20T22:53:29.900Z,59.82
2019-03-20T22:55:56.933Z,59.65
2019-03-20T22:58:24.252Z,59.26
2019-03-20T23:00:51.626Z,58.99
2019-03-20T23:03:20.598Z,58.80
2019-03-20T23:05:47.704Z,58.76
2019-03-20T23:08:18.539Z,58.50
2019-03-20T23:10:45.947Z,58.57
2019-03-20T23:13:18.801Z,58.26
2019-03-20T23:15:42.338Z,58.36
2019-03-20T23:18:09.586Z,58.35
2019-03-20T23:20:36.897Z,58.63
2019-03-20T23:23:04.253Z,58.80
2019-03-20T23:25:31.730Z,59.63
2019-03-20T23:27:59.847Z,60.06
2019-03-20T23:30:26.885Z,60.42
2019-03-20T23:32:54.305Z,60.57
2019-03-20T23:35:21.416Z,60.85
2019-03-20T23:37:48.624Z,61.17
2019-03-20T23:40:15.946Z,61.83
2019-03-20T23:42:43.521Z,62.10
2019-03-20T23:45:10.885Z,62.72
2019-03-20T23:47:39.095Z,63.25
2019-03-20T23:50:06.383Z,63.59
2019-03-20T23:52:33.669Z,64.34
2019-03-20T23:55:01.000Z,64.76
2019-03-20T23:57:28.563Z,65.29
2019-03-20T23:59:55.606Z,65.71
